sensor_id;sensor_type;location;lat;lon;timestamp;temperature;humidity
46231;DHT22;31949;51.404;-0.038;2024-02-14T00:01:22;11.80;99.90
46231;DHT22;31949;51.404;-0.038;2024-02-14T00:03:50;11.80;99.90
46231;DHT22;31949;51.404;-0.038;2024-02-14T00:06:18;11.90;99.90
46231;DHT22;31949;51.404;-0.038;2024-02-14T00:08:46;12.00;99.90
46231;DHT22;31949;51.404;-0.038;2024-02-14T00:11:13;12.00;99.90
46231;DHT22;31949;51.404;-0.038;2024-02-14T00:13:41;12.00;99.90
46231;DHT22;31949;51.404;-0.038;2024-02-14T00:16:08;12.00;99.90
46231;DHT22;31949;51.404;-0.038;2024-02-14T00:18:36;11.90;99.90
46231;DHT22;31949;51.404;-0.038;2024-02-14T00:21:04;11.90;99.90
46231;DHT22;31949;51.404;-0.038;2024-02-14T00:23:31;11.90;99.90
46231;DHT22;31949;51.404;-0.038;2024-02-14T00:25:58;11.90;99.90
46231;DHT22;31949;51.404;-0.038;2024-02-14T00:28:25;11.90;99.90
46231;DHT22;31949;51.404;-0.038;2024-02-14T00:30:54;11.90;99.90
46231;DHT22;31949;51.404;-0.038;2024-02-14T00:33:42;11.90;99.90
46231;DHT22;31949;51.404;-0.038;2024-02-14T00:36:11;12.00;99.90
46231;DHT22;31949;51.404;-0.038;2024-02-14T00:38:39;11.90;99.90
46231;DHT22;31949;51.404;-0.038;2024-02-14T00:41:06;12.00;99.90
46231;DHT22;31949;51.404;-0.038;2024-02-14T00:43:33;12.10;99.90
46231;DHT22;31949;51.404;-0.038;2024-02-14T00:46:00;12.10;99.90
46231;DHT22;31949;51.404;-0.038;2024-02-14T00:48:28;12.20;99.90
46231;DHT22;31949;51.404;-0.038;2024-02-14T00:50:55;12.10;99.90
46231;DHT22;31949;51.404;-0.038;2024-02-14T00:53:22;12.10;99.90
46231;DHT22;31949;51.404;-0.038;2024-02-14T00:55:49;12.10;99.90
46231;DHT22;31949;51.404;-0.038;2024-02-14T00:58:17;12.10;99.90
46231;DHT22;31949;51.404;-0.038;2024-02-14T01:00:44;12.10;99.90
46231;DHT22;31949;51.404;-0.038;2024-02-14T01:03:12;12.20;99.90
46231;DHT22;31949;51.404;-0.038;2024-02-14T01:05:42;12.10;99.90
46231;DHT22;31949;51.404;-0.038;2024-02-14T01:08:10;12.20;99.90
46231;DHT22;31949;51.404;-0.038;2024-02-14T01:10:37;12.20;99.90
46231;DHT22;31949;51.404;-0.038;2024-02-14T01:13:04;12.20;99.90
46231;DHT22;31949;51.404;-0.038;2024-02-14T01:15:33;12.10;99.90
46231;DHT22;31949;51.404;-0.038;2024-02-14T01:18:00;12.20;99.90
46231;DHT22;31949;51.404;-0.038;2024-02-14T01:20:28;12.10;99.90
46231;DHT22;31949;51.404;-0.038;2024-02-14T01:22:55;12.20;99.90
46231;DHT22;31949;51.404;-0.038;2024-02-14T01:25:26;12.20;99.90
46231;DHT22;31949;51.404;-0.038;2024-02-14T01:27:53;12.20;99.90
46231;DHT22;31949;51.404;-0.038;2024-02-14T01:30:21;12.20;99.90
46231;DHT22;31949;51.404;-0.038;2024-02-14T01:32:48;12.20;99.90
46231;DHT22;31949;51.404;-0.038;2024-02-14T01:35:15;12.20;99.90
46231;DHT22;31949;51.404;-0.038;2024-02-14T01:37:43;12.30;99.90
46231;DHT22;31949;51.404;-0.038;2024-02-14T01:40:12;12.20;99.90
46231;DHT22;31949;51.404;-0.038;2024-02-14T01:42:50;12.20;99.90
46231;DHT22;31949;51.404;-0.038;2024-02-14T01:45:19;12.10;99.90
46231;DHT22;31949;51.404;-0.038;2024-02-14T01:48:07;12.00;99.90
46231;DHT22;31949;51.404;-0.038;2024-02-14T01:50:46;12.10;99.90
46231;DHT22;31949;51.404;-0.038;2024-02-14T01:53:14;12.10;99.90
46231;DHT22;31949;51.404;-0.038;2024-02-14T01:55:41;12.00;99.90
46231;DHT22;31949;51.404;-0.038;2024-02-14T01:58:09;12.00;99.90
46231;DHT22;31949;51.404;-0.038;2024-02-14T02:00:37;11.90;99.90
46231;DHT22;31949;51.404;-0.038;2024-02-14T02:03:19;11.90;99.90
46231;DHT22;31949;51.404;-0.038;2024-02-14T02:05:47;11.90;99.90
46231;DHT22;31949;51.404;-0.038;2024-02-14T02:08:15;12.00;99.90
46231;DHT22;31949;51.404;-0.038;2024-02-14T02:10:42;12.10;99.90
46231;DHT22;31949;51.404;-0.038;2024-02-14T02:13:29;12.10;99.90
46231;DHT22;31949;51.404;-0.038;2024-02-14T02:16:16;12.00;99.90
46231;DHT22;31949;51.404;-0.038;2024-02-14T02:19:05;11.90;99.90
46231;DHT22;31949;51.404;-0.038;2024-02-14T02:21:55;11.90;99.90
46231;DHT22;31949;51.404;-0.038;2024-02-14T02:24:22;11.90;99.90
46231;DHT22;31949;51.404;-0.038;2024-02-14T02:26:50;11.90;99.90
46231;DHT22;31949;51.404;-0.038;2024-02-14T02:29:37;12.00;99.90
46231;DHT22;31949;51.404;-0.038;2024-02-14T02:32:05;12.00;99.90
46231;DHT22;31949;51.404;-0.038;2024-02-14T02:34:33;12.00;99.90
46231;DHT22;31949;51.404;-0.038;2024-02-14T02:37:00;12.00;99.90
46231;DHT22;31949;51.404;-0.038;2024-02-14T02:39:46;12.20;99.90
46231;DHT22;31949;51.404;-0.038;2024-02-14T02:42:33;12.20;99.90
46231;DHT22;31949;51.404;-0.038;2024-02-14T02:45:21;12.20;99.90
46231;DHT22;31949;51.404;-0.038;2024-02-14T02:48:08;12.30;99.90
46231;DHT22;31949;51.404;-0.038;2024-02-14T02:50:54;12.30;99.90
46231;DHT22;31949;51.404;-0.038;2024-02-14T02:53:40;12.30;99.90
46231;DHT22;31949;51.404;-0.038;2024-02-14T02:56:27;12.40;99.90
46231;DHT22;31949;51.404;-0.038;2024-02-14T02:58:58;12.30;99.90
46231;DHT22;31949;51.404;-0.038;2024-02-14T03:01:25;12.20;99.90
46231;DHT22;31949;51.404;-0.038;2024-02-14T03:04:15;12.20;99.90
46231;DHT22;31949;51.404;-0.038;2024-02-14T03:07:02;12.30;99.90
46231;DHT22;31949;51.404;-0.038;2024-02-14T03:09:51;12.30;99.90
46231;DHT22;31949;51.404;-0.038;2024-02-14T03:12:39;12.40;99.90
46231;DHT22;31949;51.404;-0.038;2024-02-14T03:15:26;12.40;99.90
46231;DHT22;31949;51.404;-0.038;2024-02-14T03:17:53;12.30;99.90
46231;DHT22;31949;51.404;-0.038;2024-02-14T03:20:21;12.40;99.90
46231;DHT22;31949;51.404;-0.038;2024-02-14T03:22:48;12.40;99.90
46231;DHT22;31949;51.404;-0.038;2024-02-14T03:25:19;12.40;99.90
46231;DHT22;31949;51.404;-0.038;2024-02-14T03:27:57;12.40;99.90
46231;DHT22;31949;51.404;-0.038;2024-02-14T03:30:25;12.40;99.90
46231;DHT22;31949;51.404;-0.038;2024-02-14T03:32:52;12.40;99.90
46231;DHT22;31949;51.404;-0.038;2024-02-14T03:35:20;12.40;99.90
46231;DHT22;31949;51.404;-0.038;2024-02-14T03:37:49;12.50;99.90
46231;DHT22;31949;51.404;-0.038;2024-02-14T03:40:19;12.50;99.90
46231;DHT22;31949;51.404;-0.038;2024-02-14T03:42:49;12.50;99.90
46231;DHT22;31949;51.404;-0.038;2024-02-14T03:45:17;12.50;99.90
46231;DHT22;31949;51.404;-0.038;2024-02-14T03:47:44;12.50;99.90
46231;DHT22;31949;51.404;-0.038;2024-02-14T03:50:11;12.50;99.90
46231;DHT22;31949;51.404;-0.038;2024-02-14T03:52:38;12.50;99.90
46231;DHT22;31949;51.404;-0.038;2024-02-14T03:55:06;12.40;99.90
46231;DHT22;31949;51.404;-0.038;2024-02-14T03:57:36;12.40;99.90
46231;DHT22;31949;51.404;-0.038;2024-02-14T04:00:07;12.40;99.90
46231;DHT22;31949;51.404;-0.038;2024-02-14T04:02:42;12.50;99.90
46231;DHT22;31949;51.404;-0.038;2024-02-14T04:05:09;12.40;99.90
46231;DHT22;31949;51.404;-0.038;2024-02-14T04:07:36;12.50;99.90
46231;DHT22;31949;51.404;-0.038;2024-02-14T04:10:05;12.40;99.90
46231;DHT22;31949;51.404;-0.038;2024-02-14T04:12:33;12.40;99.90
46231;DHT22;31949;51.404;-0.038;2024-02-14T04:15:00;12.40;99.90
46231;DHT22;31949;51.404;-0.038;2024-02-14T04:17:30;12.40;99.90
46231;DHT22;31949;51.404;-0.038;2024-02-14T04:19:58;12.30;99.90
46231;DHT22;31949;51.404;-0.038;2024-02-14T04:22:25;12.30;99.90
46231;DHT22;31949;51.404;-0.038;2024-02-14T04:24:52;12.30;99.90
46231;DHT22;31949;51.404;-0.038;2024-02-14T04:27:19;12.40;99.90
46231;DHT22;31949;51.404;-0.038;2024-02-14T04:29:47;12.30;99.90
46231;DHT22;31949;51.404;-0.038;2024-02-14T04:32:15;12.40;99.90
46231;DHT22;31949;51.404;-0.038;2024-02-14T04:34:42;12.40;99.90
46231;DHT22;31949;51.404;-0.038;2024-02-14T04:37:11;12.30;99.90
46231;DHT22;31949;51.404;-0.038;2024-02-14T04:39:41;12.40;99.90
46231;DHT22;31949;51.404;-0.038;2024-02-14T04:42:09;12.40;99.90
46231;DHT22;31949;51.404;-0.038;2024-02-14T04:44:36;12.40;99.90
46231;DHT22;31949;51.404;-0.038;2024-02-14T04:47:04;12.40;99.90
46231;DHT22;31949;51.404;-0.038;2024-02-14T04:49:31;12.30;99.90
46231;DHT22;31949;51.404;-0.038;2024-02-14T04:52:00;12.40;99.90
46231;DHT22;31949;51.404;-0.038;2024-02-14T04:54:27;12.40;99.90
46231;DHT22;31949;51.404;-0.038;2024-02-14T04:56:55;12.40;99.90
46231;DHT22;31949;51.404;-0.038;2024-02-14T04:59:27;12.30;99.90
46231;DHT22;31949;51.404;-0.038;2024-02-14T05:01:55;12.30;99.90
46231;DHT22;31949;51.404;-0.038;2024-02-14T05:04:23;12.30;99.90
46231;DHT22;31949;51.404;-0.038;2024-02-14T05:06:51;12.30;99.90
46231;DHT22;31949;51.404;-0.038;2024-02-14T05:09:24;12.40;99.90
46231;DHT22;31949;51.404;-0.038;2024-02-14T05:11:52;12.40;99.90
46231;DHT22;31949;51.404;-0.038;2024-02-14T05:14:19;12.40;99.90
46231;DHT22;31949;51.404;-0.038;2024-02-14T05:16:47;12.40;99.90
46231;DHT22;31949;51.404;-0.038;2024-02-14T05:19:14;12.40;99.90
46231;DHT22;31949;51.404;-0.038;2024-02-14T05:21:41;12.50;99.90
46231;DHT22;31949;51.404;-0.038;2024-02-14T05:24:09;12.40;99.90
46231;DHT22;31949;51.404;-0.038;2024-02-14T05:26:36;12.40;99.90
46231;DHT22;31949;51.404;-0.038;2024-02-14T05:29:04;12.30;99.90
46231;DHT22;31949;51.404;-0.038;2024-02-14T05:31:46;12.30;99.90
46231;DHT22;31949;51.404;-0.038;2024-02-14T05:34:14;12.30;99.90
46231;DHT22;31949;51.404;-0.038;2024-02-14T05:36:41;12.40;99.90
46231;DHT22;31949;51.404;-0.038;2024-02-14T05:39:09;12.40;99.90
46231;DHT22;31949;51.404;-0.038;2024-02-14T05:41:37;12.40;99.90
46231;DHT22;31949;51.404;-0.038;2024-02-14T05:44:04;12.50;99.90
46231;DHT22;31949;51.404;-0.038;2024-02-14T05:46:32;12.40;99.90
46231;DHT22;31949;51.404;-0.038;2024-02-14T05:48:59;12.30;99.90
46231;DHT22;31949;51.404;-0.038;2024-02-14T05:51:26;12.20;99.90
46231;DHT22;31949;51.404;-0.038;2024-02-14T05:53:54;12.20;99.90
46231;DHT22;31949;51.404;-0.038;2024-02-14T05:56:21;12.10;99.90
46231;DHT22;31949;51.404;-0.038;2024-02-14T05:58:48;12.10;99.90
46231;DHT22;31949;51.404;-0.038;2024-02-14T06:01:16;12.00;99.90
46231;DHT22;31949;51.404;-0.038;2024-02-14T06:03:43;12.00;99.90
46231;DHT22;31949;51.404;-0.038;2024-02-14T06:06:10;12.00;99.90
46231;DHT22;31949;51.404;-0.038;2024-02-14T06:08:38;12.10;99.90
46231;DHT22;31949;51.404;-0.038;2024-02-14T06:11:06;12.10;99.90
46231;DHT22;31949;51.404;-0.038;2024-02-14T06:13:34;12.10;99.90
46231;DHT22;31949;51.404;-0.038;2024-02-14T06:16:03;12.10;99.90
46231;DHT22;31949;51.404;-0.038;2024-02-14T06:18:30;12.10;99.90
46231;DHT22;31949;51.404;-0.038;2024-02-14T06:20:57;12.20;99.90
46231;DHT22;31949;51.404;-0.038;2024-02-14T06:23:25;12.10;99.90
46231;DHT22;31949;51.404;-0.038;2024-02-14T06:25:52;12.10;99.90
46231;DHT22;31949;51.404;-0.038;2024-02-14T06:28:20;12.00;99.90
46231;DHT22;31949;51.404;-0.038;2024-02-14T06:30:47;12.10;99.90
46231;DHT22;31949;51.404;-0.038;2024-02-14T06:33:15;12.10;99.90
46231;DHT22;31949;51.404;-0.038;2024-02-14T06:35:43;12.10;99.90
46231;DHT22;31949;51.404;-0.038;2024-02-14T06:38:11;12.00;99.90
46231;DHT22;31949;51.404;-0.038;2024-02-14T06:40:38;12.10;99.90
46231;DHT22;31949;51.404;-0.038;2024-02-14T06:43:05;12.10;99.90
46231;DHT22;31949;51.404;-0.038;2024-02-14T06:45:33;12.10;99.90
46231;DHT22;31949;51.404;-0.038;2024-02-14T06:48:10;12.10;99.90
46231;DHT22;31949;51.404;-0.038;2024-02-14T06:50:37;12.10;99.90
46231;DHT22;31949;51.404;-0.038;2024-02-14T06:53:06;12.00;99.90
46231;DHT22;31949;51.404;-0.038;2024-02-14T06:55:34;12.10;99.90
46231;DHT22;31949;51.404;-0.038;2024-02-14T06:58:01;12.00;99.90
46231;DHT22;31949;51.404;-0.038;2024-02-14T07:00:28;12.00;99.90
46231;DHT22;31949;51.404;-0.038;2024-02-14T07:02:56;12.10;99.90
46231;DHT22;31949;51.404;-0.038;2024-02-14T07:05:23;12.10;99.90
46231;DHT22;31949;51.404;-0.038;2024-02-14T07:07:50;12.00;99.90
46231;DHT22;31949;51.404;-0.038;2024-02-14T07:10:17;12.10;99.90
46231;DHT22;31949;51.404;-0.038;2024-02-14T07:12:44;12.00;99.90
46231;DHT22;31949;51.404;-0.038;2024-02-14T07:15:12;12.10;99.90
46231;DHT22;31949;51.404;-0.038;2024-02-14T07:17:40;12.00;99.90
46231;DHT22;31949;51.404;-0.038;2024-02-14T07:20:07;12.10;99.90
46231;DHT22;31949;51.404;-0.038;2024-02-14T07:22:37;12.10;99.90
46231;DHT22;31949;51.404;-0.038;2024-02-14T07:25:05;12.10;99.90
46231;DHT22;31949;51.404;-0.038;2024-02-14T07:27:33;12.10;99.90
46231;DHT22;31949;51.404;-0.038;2024-02-14T07:30:01;12.10;99.90
46231;DHT22;31949;51.404;-0.038;2024-02-14T07:32:30;12.10;99.90
46231;DHT22;31949;51.404;-0.038;2024-02-14T07:34:58;12.10;99.90
46231;DHT22;31949;51.404;-0.038;2024-02-14T07:37:25;12.20;99.90
46231;DHT22;31949;51.404;-0.038;2024-02-14T07:39:53;12.20;99.90
46231;DHT22;31949;51.404;-0.038;2024-02-14T07:42:20;12.20;99.90
46231;DHT22;31949;51.404;-0.038;2024-02-14T07:44:47;12.20;99.90
46231;DHT22;31949;51.404;-0.038;2024-02-14T07:47:14;12.30;99.90
46231;DHT22;31949;51.404;-0.038;2024-02-14T07:49:42;12.30;99.90
46231;DHT22;31949;51.404;-0.038;2024-02-14T07:52:09;12.40;99.90
46231;DHT22;31949;51.404;-0.038;2024-02-14T07:54:36;12.30;99.90
46231;DHT22;31949;51.404;-0.038;2024-02-14T07:57:04;12.20;99.90
46231;DHT22;31949;51.404;-0.038;2024-02-14T07:59:31;12.30;99.90
46231;DHT22;31949;51.404;-0.038;2024-02-14T08:01:58;12.20;99.90
46231;DHT22;31949;51.404;-0.038;2024-02-14T08:04:26;12.30;99.90
46231;DHT22;31949;51.404;-0.038;2024-02-14T08:06:53;12.30;99.90
46231;DHT22;31949;51.404;-0.038;2024-02-14T08:09:20;12.30;99.90
46231;DHT22;31949;51.404;-0.038;2024-02-14T08:11:47;12.30;99.90
46231;DHT22;31949;51.404;-0.038;2024-02-14T08:14:14;12.30;99.90
46231;DHT22;31949;51.404;-0.038;2024-02-14T08:16:42;12.30;99.90
46231;DHT22;31949;51.404;-0.038;2024-02-14T08:19:09;12.40;99.90
46231;DHT22;31949;51.404;-0.038;2024-02-14T08:21:36;12.40;99.90
46231;DHT22;31949;51.404;-0.038;2024-02-14T08:24:04;12.50;99.90
46231;DHT22;31949;51.404;-0.038;2024-02-14T08:26:32;12.50;99.90
46231;DHT22;31949;51.404;-0.038;2024-02-14T08:28:59;12.50;99.90
46231;DHT22;31949;51.404;-0.038;2024-02-14T08:31:27;12.50;99.90
46231;DHT22;31949;51.404;-0.038;2024-02-14T08:33:55;12.60;99.90
46231;DHT22;31949;51.404;-0.038;2024-02-14T08:36:22;12.60;99.90
46231;DHT22;31949;51.404;-0.038;2024-02-14T08:38:50;12.60;99.90
46231;DHT22;31949;51.404;-0.038;2024-02-14T08:41:17;12.50;99.90
46231;DHT22;31949;51.404;-0.038;2024-02-14T08:43:47;12.50;99.90
46231;DHT22;31949;51.404;-0.038;2024-02-14T08:46:17;12.60;99.90
46231;DHT22;31949;51.404;-0.038;2024-02-14T08:48:45;12.60;99.90
46231;DHT22;31949;51.404;-0.038;2024-02-14T08:51:16;12.70;99.90
46231;DHT22;31949;51.404;-0.038;2024-02-14T08:53:44;12.60;99.90
46231;DHT22;31949;51.404;-0.038;2024-02-14T08:56:13;12.60;99.90
46231;DHT22;31949;51.404;-0.038;2024-02-14T08:58:41;12.70;99.90
46231;DHT22;31949;51.404;-0.038;2024-02-14T09:01:08;12.60;99.90
46231;DHT22;31949;51.404;-0.038;2024-02-14T09:03:42;12.50;99.90
46231;DHT22;31949;51.404;-0.038;2024-02-14T09:06:18;12.60;99.90
46231;DHT22;31949;51.404;-0.038;2024-02-14T09:08:46;12.60;99.90
46231;DHT22;31949;51.404;-0.038;2024-02-14T09:11:14;12.70;99.90
46231;DHT22;31949;51.404;-0.038;2024-02-14T09:13:41;12.70;99.90
46231;DHT22;31949;51.404;-0.038;2024-02-14T09:16:09;12.80;99.90
46231;DHT22;31949;51.404;-0.038;2024-02-14T09:18:41;12.70;99.90
46231;DHT22;31949;51.404;-0.038;2024-02-14T09:21:08;12.60;99.90
46231;DHT22;31949;51.404;-0.038;2024-02-14T09:23:36;12.70;99.90
46231;DHT22;31949;51.404;-0.038;2024-02-14T09:26:07;12.70;99.90
46231;DHT22;31949;51.404;-0.038;2024-02-14T09:28:34;12.60;99.90
46231;DHT22;31949;51.404;-0.038;2024-02-14T09:31:02;12.70;99.90
46231;DHT22;31949;51.404;-0.038;2024-02-14T09:33:31;12.70;99.90
46231;DHT22;31949;51.404;-0.038;2024-02-14T09:35:59;12.60;99.90
46231;DHT22;31949;51.404;-0.038;2024-02-14T09:38:26;12.70;99.90
46231;DHT22;31949;51.404;-0.038;2024-02-14T09:40:54;12.60;99.90
46231;DHT22;31949;51.404;-0.038;2024-02-14T09:43:42;12.60;99.90
46231;DHT22;31949;51.404;-0.038;2024-02-14T09:46:24;12.60;99.90
46231;DHT22;31949;51.404;-0.038;2024-02-14T09:48:55;12.70;99.90
46231;DHT22;31949;51.404;-0.038;2024-02-14T09:51:44;12.70;99.90
46231;DHT22;31949;51.404;-0.038;2024-02-14T09:54:27;12.70;99.90
46231;DHT22;31949;51.404;-0.038;2024-02-14T09:57:09;12.80;99.90
46231;DHT22;31949;51.404;-0.038;2024-02-14T09:59:57;12.70;99.90
46231;DHT22;31949;51.404;-0.038;2024-02-14T10:02:36;12.80;99.90
46231;DHT22;31949;51.404;-0.038;2024-02-14T10:05:22;12.80;99.90
46231;DHT22;31949;51.404;-0.038;2024-02-14T10:07:57;12.90;99.90
46231;DHT22;31949;51.404;-0.038;2024-02-14T10:10:34;12.80;99.90
46231;DHT22;31949;51.404;-0.038;2024-02-14T10:13:15;12.80;99.90
46231;DHT22;31949;51.404;-0.038;2024-02-14T10:15:53;12.80;99.90
46231;DHT22;31949;51.404;-0.038;2024-02-14T10:18:24;12.90;99.90
46231;DHT22;31949;51.404;-0.038;2024-02-14T10:21:01;12.70;99.90
46231;DHT22;31949;51.404;-0.038;2024-02-14T10:23:30;12.70;99.90
46231;DHT22;31949;51.404;-0.038;2024-02-14T10:26:24;12.80;99.90
46231;DHT22;31949;51.404;-0.038;2024-02-14T10:29:07;12.70;99.90
46231;DHT22;31949;51.404;-0.038;2024-02-14T10:31:40;12.60;99.90
46231;DHT22;31949;51.404;-0.038;2024-02-14T10:34:16;12.70;99.90
46231;DHT22;31949;51.404;-0.038;2024-02-14T10:36:58;12.70;99.90
46231;DHT22;31949;51.404;-0.038;2024-02-14T10:39:29;12.70;99.90
46231;DHT22;31949;51.404;-0.038;2024-02-14T10:42:08;12.70;99.90
46231;DHT22;31949;51.404;-0.038;2024-02-14T10:44:41;12.80;99.90
46231;DHT22;31949;51.404;-0.038;2024-02-14T10:47:14;12.80;99.90
46231;DHT22;31949;51.404;-0.038;2024-02-14T10:50:09;12.70;99.90
46231;DHT22;31949;51.404;-0.038;2024-02-14T10:52:42;12.90;99.90
46231;DHT22;31949;51.404;-0.038;2024-02-14T10:55:14;12.80;99.90
46231;DHT22;31949;51.404;-0.038;2024-02-14T10:58:06;12.90;99.90
46231;DHT22;31949;51.404;-0.038;2024-02-14T11:00:44;12.90;99.90
46231;DHT22;31949;51.404;-0.038;2024-02-14T11:03:23;12.80;99.90
46231;DHT22;31949;51.404;-0.038;2024-02-14T11:05:55;13.00;99.90
46231;DHT22;31949;51.404;-0.038;2024-02-14T11:08:35;12.90;99.90
46231;DHT22;31949;51.404;-0.038;2024-02-14T11:11:06;12.90;99.90
46231;DHT22;31949;51.404;-0.038;2024-02-14T11:13:43;13.00;99.90
46231;DHT22;31949;51.404;-0.038;2024-02-14T11:16:14;13.10;99.90
46231;DHT22;31949;51.404;-0.038;2024-02-14T11:18:56;13.10;99.90
46231;DHT22;31949;51.404;-0.038;2024-02-14T11:21:49;13.20;99.90
46231;DHT22;31949;51.404;-0.038;2024-02-14T11:24:18;13.20;99.90
46231;DHT22;31949;51.404;-0.038;2024-02-14T11:26:50;13.30;99.90
46231;DHT22;31949;51.404;-0.038;2024-02-14T11:29:23;13.20;99.90
46231;DHT22;31949;51.404;-0.038;2024-02-14T11:31:58;13.30;99.90
46231;DHT22;31949;51.404;-0.038;2024-02-14T11:34:28;13.40;99.90
46231;DHT22;31949;51.404;-0.038;2024-02-14T11:36:55;13.40;99.90
46231;DHT22;31949;51.404;-0.038;2024-02-14T11:39:22;13.40;99.90
46231;DHT22;31949;51.404;-0.038;2024-02-14T11:41:50;13.50;99.90
46231;DHT22;31949;51.404;-0.038;2024-02-14T11:44:19;13.50;99.90
46231;DHT22;31949;51.404;-0.038;2024-02-14T11:46:49;13.50;99.90
46231;DHT22;31949;51.404;-0.038;2024-02-14T11:49:17;13.50;99.90
46231;DHT22;31949;51.404;-0.038;2024-02-14T11:51:46;13.50;99.90
46231;DHT22;31949;51.404;-0.038;2024-02-14T11:54:14;13.50;99.90
46231;DHT22;31949;51.404;-0.038;2024-02-14T11:56:43;13.50;99.90
46231;DHT22;31949;51.404;-0.038;2024-02-14T11:59:11;13.60;99.90
46231;DHT22;31949;51.404;-0.038;2024-02-14T12:01:38;13.50;99.90
46231;DHT22;31949;51.404;-0.038;2024-02-14T12:04:08;13.60;99.90
46231;DHT22;31949;51.404;-0.038;2024-02-14T12:06:38;13.70;99.90
46231;DHT22;31949;51.404;-0.038;2024-02-14T12:09:08;13.60;99.90
46231;DHT22;31949;51.404;-0.038;2024-02-14T12:11:41;13.70;99.90
46231;DHT22;31949;51.404;-0.038;2024-02-14T12:14:11;13.70;99.90
46231;DHT22;31949;51.404;-0.038;2024-02-14T12:16:39;13.70;99.90
46231;DHT22;31949;51.404;-0.038;2024-02-14T12:19:14;13.80;99.90
46231;DHT22;31949;51.404;-0.038;2024-02-14T12:21:44;13.90;99.90
46231;DHT22;31949;51.404;-0.038;2024-02-14T12:24:12;13.80;99.90
46231;DHT22;31949;51.404;-0.038;2024-02-14T12:26:43;13.80;99.90
46231;DHT22;31949;51.404;-0.038;2024-02-14T12:29:11;13.90;99.90
46231;DHT22;31949;51.404;-0.038;2024-02-14T12:31:40;14.00;99.90
46231;DHT22;31949;51.404;-0.038;2024-02-14T12:34:11;14.00;99.90
46231;DHT22;31949;51.404;-0.038;2024-02-14T12:36:40;14.10;99.90
46231;DHT22;31949;51.404;-0.038;2024-02-14T12:39:07;14.20;99.90
46231;DHT22;31949;51.404;-0.038;2024-02-14T12:41:36;14.20;99.90
46231;DHT22;31949;51.404;-0.038;2024-02-14T12:44:07;14.20;99.90
46231;DHT22;31949;51.404;-0.038;2024-02-14T12:46:35;14.30;99.90
46231;DHT22;31949;51.404;-0.038;2024-02-14T12:49:05;14.30;99.90
46231;DHT22;31949;51.404;-0.038;2024-02-14T12:51:33;14.30;99.90
46231;DHT22;31949;51.404;-0.038;2024-02-14T12:54:00;14.40;99.90
46231;DHT22;31949;51.404;-0.038;2024-02-14T12:56:28;14.40;99.90
46231;DHT22;31949;51.404;-0.038;2024-02-14T12:58:55;14.40;99.90
46231;DHT22;31949;51.404;-0.038;2024-02-14T13:01:23;14.30;99.90
46231;DHT22;31949;51.404;-0.038;2024-02-14T13:03:50;14.20;99.90
46231;DHT22;31949;51.404;-0.038;2024-02-14T13:06:18;14.20;99.90
46231;DHT22;31949;51.404;-0.038;2024-02-14T13:08:46;14.20;99.90
46231;DHT22;31949;51.404;-0.038;2024-02-14T13:11:13;14.30;99.90
46231;DHT22;31949;51.404;-0.038;2024-02-14T13:13:43;14.20;99.90
46231;DHT22;31949;51.404;-0.038;2024-02-14T13:16:11;14.20;99.90
46231;DHT22;31949;51.404;-0.038;2024-02-14T13:18:38;14.10;99.90
46231;DHT22;31949;51.404;-0.038;2024-02-14T13:21:06;14.10;99.90
46231;DHT22;31949;51.404;-0.038;2024-02-14T13:23:33;14.10;99.90
46231;DHT22;31949;51.404;-0.038;2024-02-14T13:26:01;14.20;99.90
46231;DHT22;31949;51.404;-0.038;2024-02-14T13:28:30;14.20;99.90
46231;DHT22;31949;51.404;-0.038;2024-02-14T13:30:58;14.10;99.90
46231;DHT22;31949;51.404;-0.038;2024-02-14T13:33:25;14.20;99.90
46231;DHT22;31949;51.404;-0.038;2024-02-14T13:35:53;14.00;99.90
46231;DHT22;31949;51.404;-0.038;2024-02-14T13:38:21;14.10;99.90
46231;DHT22;31949;51.404;-0.038;2024-02-14T13:40:48;14.10;99.90
46231;DHT22;31949;51.404;-0.038;2024-02-14T13:43:15;14.10;99.90
46231;DHT22;31949;51.404;-0.038;2024-02-14T13:45:45;14.10;99.90
46231;DHT22;31949;51.404;-0.038;2024-02-14T13:48:13;14.10;99.90
46231;DHT22;31949;51.404;-0.038;2024-02-14T13:50:41;14.30;99.90
46231;DHT22;31949;51.404;-0.038;2024-02-14T13:53:11;14.30;99.90
46231;DHT22;31949;51.404;-0.038;2024-02-14T13:55:39;14.40;99.90
46231;DHT22;31949;51.404;-0.038;2024-02-14T13:58:07;14.20;99.90
46231;DHT22;31949;51.404;-0.038;2024-02-14T14:00:41;14.30;99.90
46231;DHT22;31949;51.404;-0.038;2024-02-14T14:03:08;14.30;99.90
46231;DHT22;31949;51.404;-0.038;2024-02-14T14:05:35;14.20;99.90
46231;DHT22;31949;51.404;-0.038;2024-02-14T14:08:03;14.30;99.90
46231;DHT22;31949;51.404;-0.038;2024-02-14T14:10:31;14.20;99.90
46231;DHT22;31949;51.404;-0.038;2024-02-14T14:12:58;14.20;99.90
46231;DHT22;31949;51.404;-0.038;2024-02-14T14:15:25;14.20;99.90
46231;DHT22;31949;51.404;-0.038;2024-02-14T14:17:56;14.10;99.90
46231;DHT22;31949;51.404;-0.038;2024-02-14T14:20:24;14.10;99.90
46231;DHT22;31949;51.404;-0.038;2024-02-14T14:22:52;14.00;99.90
46231;DHT22;31949;51.404;-0.038;2024-02-14T14:25:22;14.00;99.90
46231;DHT22;31949;51.404;-0.038;2024-02-14T14:27:50;13.90;99.90
46231;DHT22;31949;51.404;-0.038;2024-02-14T14:30:17;14.00;99.90
46231;DHT22;31949;51.404;-0.038;2024-02-14T14:32:45;14.10;99.90
46231;DHT22;31949;51.404;-0.038;2024-02-14T14:35:13;14.10;99.90
46231;DHT22;31949;51.404;-0.038;2024-02-14T14:37:40;14.10;99.90
46231;DHT22;31949;51.404;-0.038;2024-02-14T14:40:08;14.10;99.90
46231;DHT22;31949;51.404;-0.038;2024-02-14T14:42:37;14.10;99.90
46231;DHT22;31949;51.404;-0.038;2024-02-14T14:45:05;14.10;99.90
46231;DHT22;31949;51.404;-0.038;2024-02-14T14:47:34;14.00;99.90
46231;DHT22;31949;51.404;-0.038;2024-02-14T14:50:04;14.00;99.90
46231;DHT22;31949;51.404;-0.038;2024-02-14T14:52:31;14.10;99.90
46231;DHT22;31949;51.404;-0.038;2024-02-14T14:54:58;14.00;99.90
46231;DHT22;31949;51.404;-0.038;2024-02-14T14:57:26;14.00;99.90
46231;DHT22;31949;51.404;-0.038;2024-02-14T14:59:54;14.10;99.90
46231;DHT22;31949;51.404;-0.038;2024-02-14T15:02:21;14.10;99.90
46231;DHT22;31949;51.404;-0.038;2024-02-14T15:04:52;14.10;99.90
46231;DHT22;31949;51.404;-0.038;2024-02-14T15:07:20;14.00;99.90
46231;DHT22;31949;51.404;-0.038;2024-02-14T15:09:48;14.00;99.90
46231;DHT22;31949;51.404;-0.038;2024-02-14T15:12:15;14.00;99.90
46231;DHT22;31949;51.404;-0.038;2024-02-14T15:14:43;13.90;99.90
46231;DHT22;31949;51.404;-0.038;2024-02-14T15:17:10;14.00;99.90
46231;DHT22;31949;51.404;-0.038;2024-02-14T15:19:38;14.00;99.90
46231;DHT22;31949;51.404;-0.038;2024-02-14T15:22:05;14.10;99.90
46231;DHT22;31949;51.404;-0.038;2024-02-14T15:24:32;14.00;99.90
46231;DHT22;31949;51.404;-0.038;2024-02-14T15:27:03;14.00;99.90
46231;DHT22;31949;51.404;-0.038;2024-02-14T15:29:32;14.00;99.90
46231;DHT22;31949;51.404;-0.038;2024-02-14T15:32:18;13.90;99.90
46231;DHT22;31949;51.404;-0.038;2024-02-14T15:35:04;13.90;99.90